createdAt,value
2022-12-17T00:01:09.770Z,-6.55
2022-12-17T00:03:57.507Z,-6.50
2022-12-17T00:06:45.195Z,-6.46
2022-12-17T00:09:33.290Z,-6.41
2022-12-17T00:12:22.154Z,-6.38
2022-12-17T00:15:10.096Z,-6.38
2022-12-17T00:17:57.776Z,-6.37
2022-12-17T00:20:45.427Z,-6.35
2022-12-17T00:23:33.838Z,-6.34
2022-12-17T00:26:26.693Z,-6.31
2022-12-17T00:29:14.216Z,-6.31
2022-12-17T00:32:01.630Z,-6.31
2022-12-17T00:34:51.177Z,-6.33
2022-12-17T00:37:38.993Z,-6.37
2022-12-17T00:40:28.004Z,-6.36
2022-12-17T00:43:24.304Z,-6.36
2022-12-17T00:46:14.572Z,-6.34
2022-12-17T00:49:03.045Z,-6.35
2022-12-17T00:51:50.473Z,-6.35
2022-12-17T00:54:39.741Z,-6.33
2022-12-17T00:57:27.466Z,-6.30
2022-12-17T01:00:15.324Z,-6.29
2022-12-17T01:03:03.202Z,-6.26
2022-12-17T01:06:07.550Z,-6.25
2022-12-17T01:09:00.289Z,-6.26
2022-12-17T01:11:49.428Z,-6.31
2022-12-17T01:14:38.062Z,-6.31
2022-12-17T01:17:25.596Z,-6.31
2022-12-17T01:20:13.864Z,-6.27
2022-12-17T01:23:01.742Z,-6.29
2022-12-17T01:25:50.301Z,-6.32
2022-12-17T01:28:43.964Z,-6.33
2022-12-17T01:31:35.324Z,-6.34
2022-12-17T01:34:25.145Z,-6.37
2022-12-17T01:37:16.222Z,-6.41
2022-12-17T01:40:06.284Z,-6.44
2022-12-17T01:43:21.243Z,-6.46
2022-12-17T01:46:10.308Z,-6.52
2022-12-17T01:49:03.492Z,-6.53
2022-12-17T01:51:52.040Z,-6.54
2022-12-17T01:54:41.399Z,-6.56
2022-12-17T01:57:32.677Z,-6.55
2022-12-17T02:00:29.090Z,-6.56
2022-12-17T02:03:18.623Z,-6.53
2022-12-17T02:06:29.786Z,-6.51
2022-12-17T02:09:29.966Z,-6.50
2022-12-17T02:12:30.476Z,-6.49
2022-12-17T02:15:19.155Z,-6.47
2022-12-17T02:18:12.612Z,-6.41
2022-12-17T02:21:05.375Z,-6.38
2022-12-17T02:24:14.612Z,-6.37
2022-12-17T02:27:07.264Z,-6.40
2022-12-17T02:30:21.044Z,-6.42
2022-12-17T02:33:23.509Z,-6.37
2022-12-17T02:36:26.441Z,-6.36
2022-12-17T02:39:14.205Z,-6.34
2022-12-17T02:42:06.985Z,-6.33
2022-12-17T02:44:58.290Z,-6.32
2022-12-17T02:47:48.429Z,-6.36
2022-12-17T02:50:37.589Z,-6.40
2022-12-17T02:53:26.766Z,-6.46
2022-12-17T02:56:14.212Z,-6.57
2022-12-17T02:59:21.910Z,-6.64
2022-12-17T03:02:10.035Z,-6.72
2022-12-17T03:05:10.585Z,-6.80
2022-12-17T03:08:08.064Z,-6.90
2022-12-17T03:11:03.868Z,-6.95
2022-12-17T03:13:54.386Z,-6.96
2022-12-17T03:16:47.309Z,-6.97
2022-12-17T03:19:35.236Z,-6.95
2022-12-17T03:22:25.622Z,-6.94
2022-12-17T03:25:16.086Z,-6.92
2022-12-17T03:28:05.022Z,-6.92
2022-12-17T03:30:52.853Z,-6.92
2022-12-17T03:33:40.699Z,-6.93
2022-12-17T03:36:28.016Z,-6.92
2022-12-17T03:39:17.188Z,-6.92
2022-12-17T03:42:31.485Z,-6.93
2022-12-17T03:45:19.168Z,-6.96
2022-12-17T03:48:06.339Z,-6.97
2022-12-17T03:50:56.830Z,-6.96
2022-12-17T03:53:44.933Z,-6.97
2022-12-17T03:56:32.360Z,-6.97
2022-12-17T03:59:20.042Z,-6.94
2022-12-17T04:02:07.789Z,-6.92
2022-12-17T04:04:55.549Z,-6.89
2022-12-17T04:07:43.589Z,-6.85
2022-12-17T04:10:32.449Z,-6.79
2022-12-17T04:13:21.566Z,-6.77
2022-12-17T04:16:11.323Z,-6.77
2022-12-17T04:18:59.280Z,-6.76
2022-12-17T04:21:47.928Z,-6.78
2022-12-17T04:24:36.078Z,-6.79
2022-12-17T04:27:25.605Z,-6.74
2022-12-17T04:30:13.536Z,-6.69
2022-12-17T04:33:01.160Z,-6.67
2022-12-17T04:35:48.960Z,-6.66
2022-12-17T04:38:36.498Z,-6.63
2022-12-17T04:41:24.469Z,-6.60
2022-12-17T04:44:12.114Z,-6.60
2022-12-17T04:46:59.859Z,-6.57
2022-12-17T04:49:48.415Z,-6.53
2022-12-17T04:52:35.775Z,-6.54
2022-12-17T04:55:24.858Z,-6.50
2022-12-17T04:58:12.129Z,-6.48
2022-12-17T05:01:00.321Z,-6.47
2022-12-17T05:03:49.658Z,-6.44
2022-12-17T05:06:38.416Z,-6.37
2022-12-17T05:09:28.913Z,-6.38
2022-12-17T05:12:16.517Z,-6.40
2022-12-17T05:15:04.740Z,-6.40
2022-12-17T05:17:55.886Z,-6.40
2022-12-17T05:20:45.445Z,-6.38
2022-12-17T05:23:33.907Z,-6.37
2022-12-17T05:26:46.053Z,-6.37
2022-12-17T05:29:33.635Z,-6.35
2022-12-17T05:32:21.053Z,-6.36
2022-12-17T05:35:10.219Z,-6.38
2022-12-17T05:37:58.059Z,-6.39
2022-12-17T05:40:45.706Z,-6.41
2022-12-17T05:43:33.796Z,-6.41
2022-12-17T05:46:22.695Z,-6.44
2022-12-17T05:49:12.013Z,-6.45
2022-12-17T05:51:59.636Z,-6.44
2022-12-17T05:54:48.885Z,-6.41
2022-12-17T05:57:36.288Z,-6.41
2022-12-17T06:00:26.220Z,-6.43
2022-12-17T06:03:24.145Z,-6.44
2022-12-17T06:06:15.879Z,-6.40
2022-12-17T06:09:05.079Z,-6.38
2022-12-17T06:11:56.620Z,-6.37
2022-12-17T06:14:47.020Z,-6.39
2022-12-17T06:17:34.880Z,-6.39
2022-12-17T06:20:24.131Z,-6.41
2022-12-17T06:23:22.619Z,-6.42
2022-12-17T06:26:14.552Z,-6.45
2022-12-17T06:29:02.867Z,-6.45
2022-12-17T06:31:50.585Z,-6.44
2022-12-17T06:34:38.310Z,-6.45
2022-12-17T06:37:43.680Z,-6.45
2022-12-17T06:40:31.575Z,-6.49
2022-12-17T06:43:24.127Z,-6.51
2022-12-17T06:46:11.445Z,-6.52
2022-12-17T06:48:59.381Z,-6.54
2022-12-17T06:51:47.094Z,-6.51
2022-12-17T06:54:34.493Z,-6.49
2022-12-17T06:57:22.279Z,-6.49
2022-12-17T07:00:12.267Z,-6.48
2022-12-17T07:03:03.073Z,-6.46
2022-12-17T07:05:51.164Z,-6.46
2022-12-17T07:08:40.481Z,-6.42
2022-12-17T07:11:28.644Z,-6.42
2022-12-17T07:14:17.226Z,-6.44
2022-12-17T07:17:05.498Z,-6.43
2022-12-17T07:19:53.089Z,-6.43
2022-12-17T07:22:40.320Z,-6.44
2022-12-17T07:25:27.907Z,-6.43
2022-12-17T07:28:15.908Z,-6.43
2022-12-17T07:31:05.317Z,-6.43
2022-12-17T07:33:53.078Z,-6.42
2022-12-17T07:36:40.686Z,-6.43
2022-12-17T07:39:28.417Z,-6.42
2022-12-17T07:42:21.830Z,-6.42
2022-12-17T07:45:09.710Z,-6.42
2022-12-17T07:47:57.431Z,-6.43
2022-12-17T07:50:45.478Z,-6.42
2022-12-17T07:53:33.055Z,-6.46
2022-12-17T07:56:20.748Z,-6.50
2022-12-17T07:59:08.529Z,-6.46
2022-12-17T08:01:56.428Z,-6.44
2022-12-17T08:04:45.753Z,-6.44
2022-12-17T08:07:34.723Z,-6.41
2022-12-17T08:10:23.647Z,-6.40
2022-12-17T08:13:18.645Z,-6.39
2022-12-17T08:16:07.307Z,-6.39
2022-12-17T08:18:55.129Z,-6.34
2022-12-17T08:21:43.272Z,-6.33
2022-12-17T08:24:31.333Z,-6.32
2022-12-17T08:27:19.002Z,-6.31
2022-12-17T08:30:06.882Z,-6.30
2022-12-17T08:32:56.684Z,-6.30
2022-12-17T08:35:44.741Z,-6.32
2022-12-17T08:38:33.618Z,-6.36
2022-12-17T08:41:21.887Z,-6.36
2022-12-17T08:44:23.570Z,-6.36
2022-12-17T08:47:13.903Z,-6.35
2022-12-17T08:50:01.912Z,-6.35
2022-12-17T08:52:49.576Z,-6.34
2022-12-17T08:55:37.225Z,-6.31
2022-12-17T08:58:24.598Z,-6.28
2022-12-17T09:01:13.052Z,-6.30
2022-12-17T09:04:02.158Z,-6.29
2022-12-17T09:06:51.981Z,-6.26
2022-12-17T09:09:41.071Z,-6.24
2022-12-17T09:12:30.832Z,-6.25
2022-12-17T09:15:37.403Z,-6.23
2022-12-17T09:18:25.734Z,-6.24
2022-12-17T09:21:14.907Z,-6.24
2022-12-17T09:24:02.549Z,-6.28
2022-12-17T09:26:50.379Z,-6.30
2022-12-17T09:29:38.465Z,-6.27
2022-12-17T09:32:26.426Z,-6.25
2022-12-17T09:35:16.919Z,-6.21
2022-12-17T09:38:16.714Z,-6.17
2022-12-17T09:41:10.544Z,-6.16
2022-12-17T09:44:23.915Z,-6.17
2022-12-17T09:47:32.823Z,-6.21
2022-12-17T09:50:23.043Z,-6.19
2022-12-17T09:53:12.331Z,-6.15
2022-12-17T09:56:09.255Z,-6.13
2022-12-17T09:58:59.570Z,-6.07
2022-12-17T10:01:53.765Z,-6.01
2022-12-17T10:04:56.485Z,-5.95
2022-12-17T10:07:50.176Z,-5.88
2022-12-17T10:10:52.666Z,-5.83
2022-12-17T10:13:42.807Z,-5.83
2022-12-17T10:17:07.059Z,-5.79
2022-12-17T10:20:01.152Z,-5.73
2022-12-17T10:22:49.231Z,-5.73
2022-12-17T10:25:42.607Z,-5.70
2022-12-17T10:28:43.494Z,-5.70
2022-12-17T10:31:39.542Z,-5.65
2022-12-17T10:34:40.185Z,-5.58
2022-12-17T10:37:38.877Z,-5.56
2022-12-17T10:40:45.192Z,-5.47
2022-12-17T10:43:51.321Z,-5.40
2022-12-17T10:46:49.686Z,-5.37
2022-12-17T10:49:39.419Z,-5.34
2022-12-17T10:52:50.941Z,-5.33
2022-12-17T10:56:23.028Z,-5.35
2022-12-17T10:59:13.496Z,-5.38
2022-12-17T11:02:01.831Z,-5.43
2022-12-17T11:04:57.590Z,-5.48
2022-12-17T11:07:56.206Z,-5.53
2022-12-17T11:10:50.467Z,-5.56
2022-12-17T11:13:50.430Z,-5.59
2022-12-17T11:16:49.641Z,-5.60
2022-12-17T11:20:01.974Z,-5.58
2022-12-17T11:23:19.394Z,-5.60
2022-12-17T11:26:32.702Z,-5.56
2022-12-17T11:29:20.219Z,-5.47
2022-12-17T11:32:40.586Z,-5.43
2022-12-17T11:35:40.214Z,-5.35
2022-12-17T11:38:58.170Z,-5.30
2022-12-17T11:42:26.744Z,-5.25
2022-12-17T11:45:50.622Z,-5.16
2022-12-17T11:49:12.859Z,-5.07
2022-12-17T11:52:32.318Z,-5.02
2022-12-17T11:55:31.278Z,-5.02
2022-12-17T11:58:37.271Z,-4.99
2022-12-17T12:01:36.574Z,-4.95
2022-12-17T12:04:47.621Z,-4.93
2022-12-17T12:07:48.437Z,-4.86
2022-12-17T12:10:53.282Z,-4.83
2022-12-17T12:14:01.243Z,-4.79
2022-12-17T12:17:34.145Z,-4.77
2022-12-17T12:20:54.787Z,-4.79
2022-12-17T12:23:56.014Z,-4.76
2022-12-17T12:26:59.025Z,-4.72
2022-12-17T12:30:03.523Z,-4.72
2022-12-17T12:33:21.833Z,-4.70
2022-12-17T12:36:17.057Z,-4.74
2022-12-17T12:39:12.362Z,-4.78
2022-12-17T12:42:25.507Z,-4.82
2022-12-17T12:45:45.933Z,-4.85
2022-12-17T12:48:53.513Z,-4.87
2022-12-17T12:51:49.796Z,-4.91
2022-12-17T12:55:05.763Z,-4.93
2022-12-17T12:57:56.071Z,-4.94
2022-12-17T13:00:59.170Z,-4.95
2022-12-17T13:03:49.525Z,-4.95
2022-12-17T13:06:41.912Z,-4.92
2022-12-17T13:09:19.088Z,-4.87
2022-12-17T13:12:05.257Z,-4.82
2022-12-17T13:14:44.657Z,-4.76
2022-12-17T13:17:19.094Z,-4.71
2022-12-17T13:19:57.987Z,-4.67
2022-12-17T13:22:33.984Z,-4.66
2022-12-17T13:25:19.882Z,-4.64
2022-12-17T13:27:52.233Z,-4.62
2022-12-17T13:30:54.108Z,-4.59
2022-12-17T13:34:07.248Z,-4.57
2022-12-17T13:37:28.796Z,-4.56
2022-12-17T13:43:24.404Z,-4.48
2022-12-17T13:45:56.115Z,-4.46
2022-12-17T13:48:29.572Z,-4.44
2022-12-17T13:51:07.902Z,-4.42
2022-12-17T13:53:39.838Z,-4.39
2022-12-17T13:56:12.301Z,-4.39
2022-12-17T13:58:42.643Z,-4.40
2022-12-17T14:01:28.411Z,-4.40
2022-12-17T14:04:06.935Z,-4.42
2022-12-17T14:06:52.384Z,-4.44
2022-12-17T14:09:43.461Z,-4.44
2022-12-17T14:12:27.231Z,-4.43
2022-12-17T14:15:01.628Z,-4.41
2022-12-17T14:17:38.845Z,-4.38
2022-12-17T14:20:22.014Z,-4.35
2022-12-17T14:23:00.264Z,-4.34
2022-12-17T14:25:40.584Z,-4.33
2022-12-17T14:28:36.211Z,-4.34
2022-12-17T14:31:28.372Z,-4.36
2022-12-17T14:34:17.935Z,-4.38
2022-12-17T14:36:54.205Z,-4.42
2022-12-17T14:39:30.356Z,-4.47
2022-12-17T14:42:27.478Z,-4.52
2022-12-17T14:45:06.786Z,-4.57
2022-12-17T14:47:38.139Z,-4.59
2022-12-17T14:50:37.303Z,-4.59
2022-12-17T14:53:26.592Z,-4.59
2022-12-17T14:55:58.940Z,-4.61
2022-12-17T14:58:28.294Z,-4.62
2022-12-17T15:01:09.257Z,-4.63
2022-12-17T15:03:48.689Z,-4.63
2022-12-17T15:06:20.322Z,-4.64
2022-12-17T15:08:51.532Z,-4.67
2022-12-17T15:11:23.236Z,-4.68
2022-12-17T15:13:56.254Z,-4.68
2022-12-17T15:16:25.676Z,-4.66
2022-12-17T15:18:55.552Z,-4.64
2022-12-17T15:21:26.326Z,-4.61
2022-12-17T15:23:55.321Z,-4.60
2022-12-17T15:26:25.497Z,-4.58
2022-12-17T15:28:53.208Z,-4.56
2022-12-17T15:31:36.198Z,-4.55
2022-12-17T15:37:21.112Z,-4.57
2022-12-17T15:39:53.615Z,-4.59
2022-12-17T15:43:30.475Z,-4.58
2022-12-17T15:46:02.047Z,-4.54
2022-12-17T15:48:32.946Z,-4.49
2022-12-17T15:51:02.190Z,-4.44
2022-12-17T15:53:33.180Z,-4.38
2022-12-17T15:56:04.428Z,-4.35
2022-12-17T15:58:35.546Z,-4.33
2022-12-17T16:01:07.156Z,-4.31
2022-12-17T16:03:39.061Z,-4.28
2022-12-17T16:06:10.010Z,-4.25
2022-12-17T16:08:41.512Z,-4.24
2022-12-17T16:11:16.775Z,-4.24
2022-12-17T16:13:54.984Z,-4.27
2022-12-17T16:16:26.240Z,-4.28
2022-12-17T16:18:55.609Z,-4.26
2022-12-17T16:21:27.681Z,-4.23
2022-12-17T16:24:02.531Z,-4.20
2022-12-17T16:26:34.948Z,-4.18
2022-12-17T16:29:06.970Z,-4.16
2022-12-17T16:31:38.894Z,-4.15
2022-12-17T16:34:12.014Z,-4.15
2022-12-17T16:36:41.478Z,-4.15
2022-12-17T16:39:19.087Z,-4.13
2022-12-17T16:41:52.101Z,-4.09
2022-12-17T16:44:23.667Z,-4.05
2022-12-17T16:46:54.062Z,-4.01
2022-12-17T16:49:25.902Z,-3.96
2022-12-17T16:52:00.567Z,-3.91
2022-12-17T16:54:35.289Z,-3.87
2022-12-17T16:57:05.771Z,-3.85
2022-12-17T16:59:35.885Z,-3.84
2022-12-17T17:02:10.690Z,-3.82
2022-12-17T17:04:41.771Z,-3.81
2022-12-17T17:07:11.272Z,-3.79
2022-12-17T17:09:42.275Z,-3.78
2022-12-17T17:12:13.201Z,-3.75
2022-12-17T17:14:44.749Z,-3.70
2022-12-17T17:17:14.157Z,-3.66
2022-12-17T17:19:45.590Z,-3.61
2022-12-17T17:22:14.435Z,-3.57
2022-12-17T17:24:44.961Z,-3.52
2022-12-17T17:27:13.860Z,-3.47
2022-12-17T17:29:42.931Z,-3.45
2022-12-17T17:32:14.006Z,-3.44
2022-12-17T17:34:43.811Z,-3.46
2022-12-17T17:37:16.268Z,-3.46
2022-12-17T17:39:47.053Z,-3.44
2022-12-17T17:42:17.000Z,-3.42
2022-12-17T17:44:50.010Z,-3.38
2022-12-17T17:47:22.014Z,-3.34
2022-12-17T17:49:53.615Z,-3.31
2022-12-17T17:52:26.830Z,-3.35
2022-12-17T17:54:58.501Z,-3.37
2022-12-17T17:57:27.819Z,-3.34
2022-12-17T17:59:57.717Z,-3.29
2022-12-17T18:02:27.718Z,-3.26
2022-12-17T18:05:00.024Z,-3.21
2022-12-17T18:07:28.840Z,-3.18
2022-12-17T18:10:00.228Z,-3.15
2022-12-17T18:12:50.896Z,-3.15
2022-12-17T18:15:20.550Z,-3.13
2022-12-17T18:17:53.158Z,-3.12
2022-12-17T18:20:29.935Z,-3.11
2022-12-17T18:22:59.460Z,-3.08
2022-12-17T18:25:37.636Z,-3.05
2022-12-17T18:28:10.219Z,-3.00
2022-12-17T18:30:41.248Z,-2.97
2022-12-17T18:33:15.028Z,-2.94
2022-12-17T18:35:45.919Z,-2.93
2022-12-17T18:38:18.509Z,-2.90
2022-12-17T18:40:49.849Z,-2.87
2022-12-17T18:43:26.106Z,-2.86
2022-12-17T18:45:56.950Z,-2.86
2022-12-17T18:48:27.410Z,-2.83
2022-12-17T18:51:07.120Z,-2.76
2022-12-17T18:53:44.900Z,-2.69
2022-12-17T18:56:31.629Z,-2.61
2022-12-17T18:59:07.060Z,-2.59
2022-12-17T19:01:39.190Z,-2.59
2022-12-17T19:04:13.198Z,-2.58
2022-12-17T19:06:45.669Z,-2.58
2022-12-17T19:09:22.412Z,-2.54
2022-12-17T19:11:54.218Z,-2.48
2022-12-17T19:14:26.308Z,-2.45
2022-12-17T19:16:58.720Z,-2.45
2022-12-17T19:19:29.143Z,-2.46
2022-12-17T19:22:01.187Z,-2.48
2022-12-17T19:24:34.219Z,-2.49
2022-12-17T19:27:05.129Z,-2.52
2022-12-17T19:29:35.061Z,-2.55
2022-12-17T19:32:05.751Z,-2.57
2022-12-17T19:34:35.621Z,-2.59
2022-12-17T19:37:06.835Z,-2.62
2022-12-17T19:39:39.700Z,-2.63
2022-12-17T19:45:10.297Z,-2.64
2022-12-17T19:47:57.943Z,-2.60
2022-12-17T19:50:30.160Z,-2.58
2022-12-17T19:53:07.777Z,-2.58
2022-12-17T19:55:37.182Z,-2.60
2022-12-17T19:58:08.000Z,-2.64
2022-12-17T20:00:40.965Z,-2.66
2022-12-17T20:03:11.761Z,-2.68
2022-12-17T20:05:47.155Z,-2.68
2022-12-17T20:08:22.325Z,-2.67
2022-12-17T20:10:52.772Z,-2.66
2022-12-17T20:13:26.218Z,-2.64
2022-12-17T20:16:06.062Z,-2.62
2022-12-17T20:18:38.690Z,-2.62
2022-12-17T20:21:08.428Z,-2.63
2022-12-17T20:23:40.058Z,-2.64
2022-12-17T20:26:14.088Z,-2.65
2022-12-17T20:28:46.773Z,-2.69
2022-12-17T20:31:18.452Z,-2.69
2022-12-17T20:33:48.742Z,-2.65
2022-12-17T20:36:24.233Z,-2.58
2022-12-17T20:38:58.987Z,-2.54
2022-12-17T20:42:21.492Z,-2.50
2022-12-17T20:44:53.637Z,-2.45
2022-12-17T20:47:23.355Z,-2.42
2022-12-17T20:49:53.751Z,-2.44
2022-12-17T20:52:26.287Z,-2.44
2022-12-17T20:54:55.999Z,-2.41
2022-12-17T20:57:26.661Z,-2.39
2022-12-17T20:59:57.639Z,-2.36
2022-12-17T21:02:28.577Z,-2.34
2022-12-17T21:04:59.330Z,-2.29
2022-12-17T21:07:29.018Z,-2.24
2022-12-17T21:09:58.900Z,-2.23
2022-12-17T21:12:47.886Z,-2.25
2022-12-17T21:15:18.582Z,-2.32
2022-12-17T21:17:49.886Z,-2.38
2022-12-17T21:20:18.909Z,-2.41
2022-12-17T21:22:50.070Z,-2.44
2022-12-17T21:25:19.420Z,-2.43
2022-12-17T21:27:49.083Z,-2.39
2022-12-17T21:30:19.871Z,-2.38
2022-12-17T21:32:49.948Z,-2.39
2022-12-17T21:35:19.365Z,-2.39
2022-12-17T21:37:48.859Z,-2.41
2022-12-17T21:40:20.200Z,-2.45
2022-12-17T21:43:40.022Z,-2.46
2022-12-17T21:46:11.798Z,-2.47
2022-12-17T21:48:45.358Z,-2.45
2022-12-17T21:51:15.617Z,-2.45
2022-12-17T21:53:46.013Z,-2.44
2022-12-17T21:56:17.931Z,-2.42
2022-12-17T21:58:50.053Z,-2.42
2022-12-17T22:01:26.810Z,-2.44
2022-12-17T22:03:59.370Z,-2.44
2022-12-17T22:06:42.481Z,-2.44
2022-12-17T22:10:11.617Z,-2.46
2022-12-17T22:13:02.019Z,-2.46
2022-12-17T22:15:38.675Z,-2.46
2022-12-17T22:18:18.356Z,-2.43
2022-12-17T22:21:00.854Z,-2.38
2022-12-17T22:23:31.190Z,-2.40
2022-12-17T22:26:01.404Z,-2.40
2022-12-17T22:28:30.364Z,-2.42
2022-12-17T22:31:23.553Z,-2.43
2022-12-17T22:34:49.769Z,-2.42
2022-12-17T22:40:19.235Z,-2.42
2022-12-17T22:44:29.081Z,-2.40
2022-12-17T22:44:45.552Z,-2.39
2022-12-17T22:45:32.567Z,-2.32
2022-12-17T22:48:03.018Z,-2.32
2022-12-17T22:50:39.168Z,-2.32
2022-12-17T22:53:27.920Z,-2.33
2022-12-17T22:56:14.709Z,-2.34
2022-12-17T22:58:51.606Z,-2.34
2022-12-17T23:01:23.374Z,-2.36
2022-12-17T23:03:57.256Z,-2.40
2022-12-17T23:06:27.202Z,-2.36
2022-12-17T23:08:59.401Z,-2.36
2022-12-17T23:11:30.058Z,-2.39
2022-12-17T23:14:03.220Z,-2.39
2022-12-17T23:16:33.212Z,-2.37
2022-12-17T23:19:02.555Z,-2.40
2022-12-17T23:21:32.474Z,-2.43
2022-12-17T23:24:02.447Z,-2.46
2022-12-17T23:26:36.870Z,-2.46
2022-12-17T23:29:14.918Z,-2.36
2022-12-17T23:31:48.605Z,-2.35
2022-12-17T23:34:17.893Z,-2.39
2022-12-17T23:36:47.808Z,-2.38
2022-12-17T23:39:18.416Z,-2.38
2022-12-17T23:46:21.991Z,-2.22
2022-12-17T23:48:54.243Z,-2.19
2022-12-17T23:51:24.901Z,-2.17
2022-12-17T23:53:54.990Z,-2.13
2022-12-17T23:56:29.076Z,-2.13
2022-12-17T23:59:00.717Z,-2.08
